sensor_id;sensor_type;location;lat;lon;timestamp;temperature;humidity
4376;DHT22;2202;50.866;12.750;2023-04-25T00:01:40;6.00;91.40
4376;DHT22;2202;50.866;12.750;2023-04-25T00:04:08;5.90;91.40
4376;DHT22;2202;50.866;12.750;2023-04-25T00:06:35;5.90;91.40
4376;DHT22;2202;50.866;12.750;2023-04-25T00:09:02;5.90;91.40
4376;DHT22;2202;50.866;12.750;2023-04-25T00:11:32;5.90;91.40
4376;DHT22;2202;50.866;12.750;2023-04-25T00:13:59;5.80;91.30
4376;DHT22;2202;50.866;12.750;2023-04-25T00:16:27;5.60;91.70
4376;DHT22;2202;50.866;12.750;2023-04-25T00:18:54;5.50;92.00
4376;DHT22;2202;50.866;12.750;2023-04-25T00:21:23;5.40;92.40
4376;DHT22;2202;50.866;12.750;2023-04-25T00:23:51;5.30;92.50
4376;DHT22;2202;50.866;12.750;2023-04-25T00:26:18;5.40;92.50
4376;DHT22;2202;50.866;12.750;2023-04-25T00:28:46;5.30;92.50
4376;DHT22;2202;50.866;12.750;2023-04-25T00:31:13;5.30;92.50
4376;DHT22;2202;50.866;12.750;2023-04-25T00:33:40;5.30;92.60
4376;DHT22;2202;50.866;12.750;2023-04-25T00:36:07;5.20;92.90
4376;DHT22;2202;50.866;12.750;2023-04-25T00:38:36;5.20;93.20
4376;DHT22;2202;50.866;12.750;2023-04-25T00:41:04;5.00;93.60
4376;DHT22;2202;50.866;12.750;2023-04-25T00:43:32;5.00;93.50
4376;DHT22;2202;50.866;12.750;2023-04-25T00:46:00;5.10;93.50
4376;DHT22;2202;50.866;12.750;2023-04-25T00:48:27;5.10;93.40
4376;DHT22;2202;50.866;12.750;2023-04-25T00:50:56;5.10;93.30
4376;DHT22;2202;50.866;12.750;2023-04-25T00:53:24;5.10;93.30
4376;DHT22;2202;50.866;12.750;2023-04-25T00:55:53;5.10;93.10
4376;DHT22;2202;50.866;12.750;2023-04-25T00:58:21;5.00;93.20
4376;DHT22;2202;50.866;12.750;2023-04-25T01:00:50;4.90;93.70
4376;DHT22;2202;50.866;12.750;2023-04-25T01:03:17;4.90;93.80
4376;DHT22;2202;50.866;12.750;2023-04-25T01:05:46;4.90;93.90
4376;DHT22;2202;50.866;12.750;2023-04-25T01:08:14;5.00;94.00
4376;DHT22;2202;50.866;12.750;2023-04-25T01:10:41;5.00;94.00
4376;DHT22;2202;50.866;12.750;2023-04-25T01:13:09;5.00;94.00
4376;DHT22;2202;50.866;12.750;2023-04-25T01:15:36;4.90;94.50
4376;DHT22;2202;50.866;12.750;2023-04-25T01:18:04;4.90;94.90
4376;DHT22;2202;50.866;12.750;2023-04-25T01:20:32;5.00;95.10
4376;DHT22;2202;50.866;12.750;2023-04-25T01:23:00;5.20;94.90
4376;DHT22;2202;50.866;12.750;2023-04-25T01:25:29;5.30;94.70
4376;DHT22;2202;50.866;12.750;2023-04-25T01:27:57;5.50;94.30
4376;DHT22;2202;50.866;12.750;2023-04-25T01:30:24;5.60;94.10
4376;DHT22;2202;50.866;12.750;2023-04-25T01:32:53;5.70;94.10
4376;DHT22;2202;50.866;12.750;2023-04-25T01:35:20;5.80;93.80
4376;DHT22;2202;50.866;12.750;2023-04-25T01:37:49;5.90;93.60
4376;DHT22;2202;50.866;12.750;2023-04-25T01:40:17;5.90;93.60
4376;DHT22;2202;50.866;12.750;2023-04-25T01:42:45;6.00;93.50
4376;DHT22;2202;50.866;12.750;2023-04-25T01:45:12;6.00;93.40
4376;DHT22;2202;50.866;12.750;2023-04-25T01:47:39;6.00;93.30
4376;DHT22;2202;50.866;12.750;2023-04-25T01:50:09;6.10;93.30
4376;DHT22;2202;50.866;12.750;2023-04-25T01:52:36;6.20;93.10
4376;DHT22;2202;50.866;12.750;2023-04-25T01:55:03;6.30;92.80
4376;DHT22;2202;50.866;12.750;2023-04-25T01:57:32;6.30;92.70
4376;DHT22;2202;50.866;12.750;2023-04-25T02:00:00;6.20;92.80
4376;DHT22;2202;50.866;12.750;2023-04-25T02:02:28;6.30;92.70
4376;DHT22;2202;50.866;12.750;2023-04-25T02:04:55;6.30;92.40
4376;DHT22;2202;50.866;12.750;2023-04-25T02:07:22;6.40;92.20
4376;DHT22;2202;50.866;12.750;2023-04-25T02:09:48;6.40;92.00
4376;DHT22;2202;50.866;12.750;2023-04-25T02:12:15;6.40;91.70
4376;DHT22;2202;50.866;12.750;2023-04-25T02:14:44;6.40;91.70
4376;DHT22;2202;50.866;12.750;2023-04-25T02:17:10;6.40;91.80
4376;DHT22;2202;50.866;12.750;2023-04-25T02:19:39;6.50;91.60
4376;DHT22;2202;50.866;12.750;2023-04-25T02:22:05;6.50;91.60
4376;DHT22;2202;50.866;12.750;2023-04-25T02:24:32;6.50;91.70
4376;DHT22;2202;50.866;12.750;2023-04-25T02:27:00;6.50;91.80
4376;DHT22;2202;50.866;12.750;2023-04-25T02:29:27;6.50;91.90
4376;DHT22;2202;50.866;12.750;2023-04-25T02:31:55;6.60;91.90
4376;DHT22;2202;50.866;12.750;2023-04-25T02:34:22;6.60;91.90
4376;DHT22;2202;50.866;12.750;2023-04-25T02:36:49;6.60;91.80
4376;DHT22;2202;50.866;12.750;2023-04-25T02:39:16;6.60;91.60
4376;DHT22;2202;50.866;12.750;2023-04-25T02:41:43;6.60;91.60
4376;DHT22;2202;50.866;12.750;2023-04-25T02:44:10;6.70;91.60
4376;DHT22;2202;50.866;12.750;2023-04-25T02:46:37;6.60;91.60
4376;DHT22;2202;50.866;12.750;2023-04-25T02:49:05;6.60;91.50
4376;DHT22;2202;50.866;12.750;2023-04-25T02:51:32;6.60;91.60
4376;DHT22;2202;50.866;12.750;2023-04-25T02:53:59;6.60;91.10
4376;DHT22;2202;50.866;12.750;2023-04-25T02:56:26;6.70;90.90
4376;DHT22;2202;50.866;12.750;2023-04-25T02:58:53;6.70;90.90
4376;DHT22;2202;50.866;12.750;2023-04-25T03:01:20;6.60;90.80
4376;DHT22;2202;50.866;12.750;2023-04-25T03:03:47;6.70;90.70
4376;DHT22;2202;50.866;12.750;2023-04-25T03:06:15;6.70;90.50
4376;DHT22;2202;50.866;12.750;2023-04-25T03:08:42;6.70;90.50
4376;DHT22;2202;50.866;12.750;2023-04-25T03:11:09;6.80;90.70
4376;DHT22;2202;50.866;12.750;2023-04-25T03:13:35;6.90;90.50
4376;DHT22;2202;50.866;12.750;2023-04-25T03:16:03;6.90;90.50
4376;DHT22;2202;50.866;12.750;2023-04-25T03:18:29;6.90;90.50
4376;DHT22;2202;50.866;12.750;2023-04-25T03:20:56;6.90;90.70
4376;DHT22;2202;50.866;12.750;2023-04-25T03:23:25;6.90;90.80
4376;DHT22;2202;50.866;12.750;2023-04-25T03:25:51;6.90;91.00
4376;DHT22;2202;50.866;12.750;2023-04-25T03:28:18;6.90;91.10
4376;DHT22;2202;50.866;12.750;2023-04-25T03:30:45;6.90;91.40
4376;DHT22;2202;50.866;12.750;2023-04-25T03:33:12;6.90;91.30
4376;DHT22;2202;50.866;12.750;2023-04-25T03:35:39;6.90;91.50
4376;DHT22;2202;50.866;12.750;2023-04-25T03:38:06;7.00;91.70
4376;DHT22;2202;50.866;12.750;2023-04-25T03:40:35;7.00;91.60
4376;DHT22;2202;50.866;12.750;2023-04-25T03:43:01;7.10;91.60
4376;DHT22;2202;50.866;12.750;2023-04-25T03:45:28;7.10;91.60
4376;DHT22;2202;50.866;12.750;2023-04-25T03:47:55;7.10;91.60
4376;DHT22;2202;50.866;12.750;2023-04-25T03:50:22;7.10;91.60
4376;DHT22;2202;50.866;12.750;2023-04-25T03:52:49;7.10;91.60
4376;DHT22;2202;50.866;12.750;2023-04-25T03:55:16;7.00;91.50
4376;DHT22;2202;50.866;12.750;2023-04-25T03:57:44;6.80;91.60
4376;DHT22;2202;50.866;12.750;2023-04-25T04:00:12;6.70;91.40
4376;DHT22;2202;50.866;12.750;2023-04-25T04:02:39;6.70;91.30
4376;DHT22;2202;50.866;12.750;2023-04-25T04:05:06;6.70;91.20
4376;DHT22;2202;50.866;12.750;2023-04-25T04:07:33;6.70;91.10
4376;DHT22;2202;50.866;12.750;2023-04-25T04:10:05;6.80;90.90
4376;DHT22;2202;50.866;12.750;2023-04-25T04:12:33;6.70;90.70
4376;DHT22;2202;50.866;12.750;2023-04-25T04:15:01;6.70;90.70
4376;DHT22;2202;50.866;12.750;2023-04-25T04:17:28;6.60;90.40
4376;DHT22;2202;50.866;12.750;2023-04-25T04:19:55;6.60;89.80
4376;DHT22;2202;50.866;12.750;2023-04-25T04:22:22;6.60;89.80
4376;DHT22;2202;50.866;12.750;2023-04-25T04:24:49;6.60;89.60
4376;DHT22;2202;50.866;12.750;2023-04-25T04:27:17;6.50;89.40
4376;DHT22;2202;50.866;12.750;2023-04-25T04:29:45;6.50;89.80
4376;DHT22;2202;50.866;12.750;2023-04-25T04:32:14;6.40;90.10
4376;DHT22;2202;50.866;12.750;2023-04-25T04:34:41;6.40;90.30
4376;DHT22;2202;50.866;12.750;2023-04-25T04:37:08;6.50;90.10
4376;DHT22;2202;50.866;12.750;2023-04-25T04:39:35;6.40;90.00
4376;DHT22;2202;50.866;12.750;2023-04-25T04:42:02;6.40;90.20
4376;DHT22;2202;50.866;12.750;2023-04-25T04:44:30;6.40;90.40
4376;DHT22;2202;50.866;12.750;2023-04-25T04:46:59;6.30;90.50
4376;DHT22;2202;50.866;12.750;2023-04-25T04:49:28;6.30;90.60
4376;DHT22;2202;50.866;12.750;2023-04-25T04:51:55;6.20;90.30
4376;DHT22;2202;50.866;12.750;2023-04-25T04:54:22;6.20;90.40
4376;DHT22;2202;50.866;12.750;2023-04-25T04:56:49;6.20;90.40
4376;DHT22;2202;50.866;12.750;2023-04-25T04:59:17;6.10;89.80
4376;DHT22;2202;50.866;12.750;2023-04-25T05:01:44;6.10;90.10
4376;DHT22;2202;50.866;12.750;2023-04-25T05:04:12;6.20;90.10
4376;DHT22;2202;50.866;12.750;2023-04-25T05:06:40;6.30;90.00
4376;DHT22;2202;50.866;12.750;2023-04-25T05:09:07;6.30;88.80
4376;DHT22;2202;50.866;12.750;2023-04-25T05:11:34;6.40;89.00
4376;DHT22;2202;50.866;12.750;2023-04-25T05:14:01;6.50;88.80
4376;DHT22;2202;50.866;12.750;2023-04-25T05:16:28;6.50;87.40
4376;DHT22;2202;50.866;12.750;2023-04-25T05:18:55;6.60;87.40
4376;DHT22;2202;50.866;12.750;2023-04-25T05:21:21;6.50;86.60
4376;DHT22;2202;50.866;12.750;2023-04-25T05:23:50;6.60;87.00
4376;DHT22;2202;50.866;12.750;2023-04-25T05:26:17;6.60;87.00
4376;DHT22;2202;50.866;12.750;2023-04-25T05:28:44;6.60;85.20
4376;DHT22;2202;50.866;12.750;2023-04-25T05:31:10;6.60;85.60
4376;DHT22;2202;50.866;12.750;2023-04-25T05:33:38;6.60;85.20
4376;DHT22;2202;50.866;12.750;2023-04-25T05:36:05;6.50;85.80
4376;DHT22;2202;50.866;12.750;2023-04-25T05:38:32;6.50;86.20
4376;DHT22;2202;50.866;12.750;2023-04-25T05:41:01;6.40;86.20
4376;DHT22;2202;50.866;12.750;2023-04-25T05:43:28;6.30;86.40
4376;DHT22;2202;50.866;12.750;2023-04-25T05:45:55;6.40;87.00
4376;DHT22;2202;50.866;12.750;2023-04-25T05:48:22;6.40;87.20
4376;DHT22;2202;50.866;12.750;2023-04-25T05:50:48;6.60;87.40
4376;DHT22;2202;50.866;12.750;2023-04-25T05:53:17;6.50;85.80
4376;DHT22;2202;50.866;12.750;2023-04-25T05:55:44;6.40;86.60
4376;DHT22;2202;50.866;12.750;2023-04-25T05:58:12;6.30;85.80
4376;DHT22;2202;50.866;12.750;2023-04-25T06:00:39;6.30;87.00
4376;DHT22;2202;50.866;12.750;2023-04-25T06:03:07;6.40;87.40
4376;DHT22;2202;50.866;12.750;2023-04-25T06:05:35;6.40;86.60
4376;DHT22;2202;50.866;12.750;2023-04-25T06:08:02;6.60;87.20
4376;DHT22;2202;50.866;12.750;2023-04-25T06:10:29;6.70;84.80
4376;DHT22;2202;50.866;12.750;2023-04-25T06:12:56;6.80;85.20
4376;DHT22;2202;50.866;12.750;2023-04-25T06:15:24;6.90;84.00
4376;DHT22;2202;50.866;12.750;2023-04-25T06:17:51;7.00;83.60
4376;DHT22;2202;50.866;12.750;2023-04-25T06:20:18;7.00;83.20
4376;DHT22;2202;50.866;12.750;2023-04-25T06:22:48;7.10;81.60
4376;DHT22;2202;50.866;12.750;2023-04-25T06:25:15;7.00;81.60
4376;DHT22;2202;50.866;12.750;2023-04-25T06:27:42;7.00;81.80
4376;DHT22;2202;50.866;12.750;2023-04-25T06:30:10;6.90;82.60
4376;DHT22;2202;50.866;12.750;2023-04-25T06:32:39;6.90;82.80
4376;DHT22;2202;50.866;12.750;2023-04-25T06:35:07;7.00;83.20
4376;DHT22;2202;50.866;12.750;2023-04-25T06:37:33;6.90;80.40
4376;DHT22;2202;50.866;12.750;2023-04-25T06:40:00;6.80;81.00
4376;DHT22;2202;50.866;12.750;2023-04-25T06:42:28;6.80;83.40
4376;DHT22;2202;50.866;12.750;2023-04-25T06:44:54;6.90;82.20
4376;DHT22;2202;50.866;12.750;2023-04-25T06:47:23;6.90;83.00
4376;DHT22;2202;50.866;12.750;2023-04-25T06:49:51;6.90;81.20
4376;DHT22;2202;50.866;12.750;2023-04-25T06:52:17;6.90;81.20
4376;DHT22;2202;50.866;12.750;2023-04-25T06:54:44;6.90;81.40
4376;DHT22;2202;50.866;12.750;2023-04-25T06:57:11;6.80;79.80
4376;DHT22;2202;50.866;12.750;2023-04-25T06:59:38;6.60;79.80
4376;DHT22;2202;50.866;12.750;2023-04-25T07:02:05;6.80;81.40
4376;DHT22;2202;50.866;12.750;2023-04-25T07:04:32;6.90;77.00
4376;DHT22;2202;50.866;12.750;2023-04-25T07:07:01;7.10;78.00
4376;DHT22;2202;50.866;12.750;2023-04-25T07:09:29;7.30;76.20
4376;DHT22;2202;50.866;12.750;2023-04-25T07:11:59;7.40;76.40
4376;DHT22;2202;50.866;12.750;2023-04-25T07:14:27;7.70;75.60
4376;DHT22;2202;50.866;12.750;2023-04-25T07:16:53;7.80;72.80
4376;DHT22;2202;50.866;12.750;2023-04-25T07:19:21;7.90;73.80
4376;DHT22;2202;50.866;12.750;2023-04-25T07:21:49;7.60;73.20
4376;DHT22;2202;50.866;12.750;2023-04-25T07:24:17;7.60;75.00
4376;DHT22;2202;50.866;12.750;2023-04-25T07:26:44;7.50;75.40
4376;DHT22;2202;50.866;12.750;2023-04-25T07:29:11;7.30;76.20
4376;DHT22;2202;50.866;12.750;2023-04-25T07:31:38;7.40;74.60
4376;DHT22;2202;50.866;12.750;2023-04-25T07:34:05;7.50;73.80
4376;DHT22;2202;50.866;12.750;2023-04-25T07:36:32;7.80;75.20
4376;DHT22;2202;50.866;12.750;2023-04-25T07:38:59;8.20;74.40
4376;DHT22;2202;50.866;12.750;2023-04-25T07:41:27;7.90;71.60
4376;DHT22;2202;50.866;12.750;2023-04-25T07:43:54;8.00;74.00
4376;DHT22;2202;50.866;12.750;2023-04-25T07:46:21;8.00;73.20
4376;DHT22;2202;50.866;12.750;2023-04-25T07:48:48;8.00;73.80
4376;DHT22;2202;50.866;12.750;2023-04-25T07:51:14;8.00;74.20
4376;DHT22;2202;50.866;12.750;2023-04-25T07:53:41;7.80;75.40
4376;DHT22;2202;50.866;12.750;2023-04-25T07:56:09;7.70;73.20
4376;DHT22;2202;50.866;12.750;2023-04-25T07:58:37;7.60;73.80
4376;DHT22;2202;50.866;12.750;2023-04-25T08:01:04;7.50;75.20
4376;DHT22;2202;50.866;12.750;2023-04-25T08:03:31;7.60;75.80
4376;DHT22;2202;50.866;12.750;2023-04-25T08:05:58;7.40;76.40
4376;DHT22;2202;50.866;12.750;2023-04-25T08:08:24;7.30;76.80
4376;DHT22;2202;50.866;12.750;2023-04-25T08:10:51;7.20;76.40
4376;DHT22;2202;50.866;12.750;2023-04-25T08:13:18;7.00;76.00
4376;DHT22;2202;50.866;12.750;2023-04-25T08:15:47;7.00;78.00
4376;DHT22;2202;50.866;12.750;2023-04-25T08:18:13;7.10;78.20
4376;DHT22;2202;50.866;12.750;2023-04-25T08:20:40;7.20;78.80
4376;DHT22;2202;50.866;12.750;2023-04-25T08:23:07;7.40;79.80
4376;DHT22;2202;50.866;12.750;2023-04-25T08:25:36;7.30;77.20
4376;DHT22;2202;50.866;12.750;2023-04-25T08:28:03;7.40;79.20
4376;DHT22;2202;50.866;12.750;2023-04-25T08:30:30;7.40;78.00
4376;DHT22;2202;50.866;12.750;2023-04-25T08:32:58;7.30;78.00
4376;DHT22;2202;50.866;12.750;2023-04-25T08:35:25;7.40;79.40
4376;DHT22;2202;50.866;12.750;2023-04-25T08:37:52;7.40;78.40
4376;DHT22;2202;50.866;12.750;2023-04-25T08:40:19;7.30;78.60
4376;DHT22;2202;50.866;12.750;2023-04-25T08:42:52;7.30;80.40
4376;DHT22;2202;50.866;12.750;2023-04-25T08:45:20;7.50;80.80
4376;DHT22;2202;50.866;12.750;2023-04-25T08:47:47;7.50;76.80
4376;DHT22;2202;50.866;12.750;2023-04-25T08:50:19;7.60;78.80
4376;DHT22;2202;50.866;12.750;2023-04-25T08:52:50;7.70;78.00
4376;DHT22;2202;50.866;12.750;2023-04-25T08:55:18;7.90;76.20
4376;DHT22;2202;50.866;12.750;2023-04-25T08:57:46;7.90;76.20
4376;DHT22;2202;50.866;12.750;2023-04-25T09:00:14;7.70;76.60
4376;DHT22;2202;50.866;12.750;2023-04-25T09:02:43;7.50;77.60
4376;DHT22;2202;50.866;12.750;2023-04-25T09:05:12;7.30;79.00
4376;DHT22;2202;50.866;12.750;2023-04-25T09:07:41;7.10;80.00
4376;DHT22;2202;50.866;12.750;2023-04-25T09:10:08;7.00;80.60
4376;DHT22;2202;50.866;12.750;2023-04-25T09:12:35;7.00;82.20
4376;DHT22;2202;50.866;12.750;2023-04-25T09:15:05;7.10;80.80
4376;DHT22;2202;50.866;12.750;2023-04-25T09:17:32;7.10;82.00
4376;DHT22;2202;50.866;12.750;2023-04-25T09:20:06;7.30;82.00
4376;DHT22;2202;50.866;12.750;2023-04-25T09:22:34;7.50;81.80
4376;DHT22;2202;50.866;12.750;2023-04-25T09:25:07;7.50;79.20
4376;DHT22;2202;50.866;12.750;2023-04-25T09:27:35;7.60;79.20
4376;DHT22;2202;50.866;12.750;2023-04-25T09:30:02;7.20;81.80
4376;DHT22;2202;50.866;12.750;2023-04-25T09:32:29;7.20;81.20
4376;DHT22;2202;50.866;12.750;2023-04-25T09:34:56;7.00;80.80
4376;DHT22;2202;50.866;12.750;2023-04-25T09:37:24;6.90;81.80
4376;DHT22;2202;50.866;12.750;2023-04-25T09:39:53;6.90;82.80
4376;DHT22;2202;50.866;12.750;2023-04-25T09:42:23;7.10;82.80
4376;DHT22;2202;50.866;12.750;2023-04-25T09:44:52;7.30;82.60
4376;DHT22;2202;50.866;12.750;2023-04-25T09:47:19;7.60;81.80
4376;DHT22;2202;50.866;12.750;2023-04-25T09:49:49;7.90;80.00
4376;DHT22;2202;50.866;12.750;2023-04-25T09:52:17;7.70;76.40
4376;DHT22;2202;50.866;12.750;2023-04-25T09:54:45;7.60;79.40
4376;DHT22;2202;50.866;12.750;2023-04-25T09:57:13;7.40;78.60
4376;DHT22;2202;50.866;12.750;2023-04-25T09:59:45;7.30;80.40
4376;DHT22;2202;50.866;12.750;2023-04-25T10:02:13;7.40;80.40
4376;DHT22;2202;50.866;12.750;2023-04-25T10:04:42;7.40;80.80
4376;DHT22;2202;50.866;12.750;2023-04-25T10:07:12;7.40;80.20
4376;DHT22;2202;50.866;12.750;2023-04-25T10:09:39;7.40;80.40
4376;DHT22;2202;50.866;12.750;2023-04-25T10:12:07;7.20;80.60
4376;DHT22;2202;50.866;12.750;2023-04-25T10:14:34;7.20;81.40
4376;DHT22;2202;50.866;12.750;2023-04-25T10:17:03;7.10;82.60
4376;DHT22;2202;50.866;12.750;2023-04-25T10:19:30;7.00;82.60
4376;DHT22;2202;50.866;12.750;2023-04-25T10:22:07;7.10;84.80
4376;DHT22;2202;50.866;12.750;2023-04-25T10:24:35;7.10;84.80
4376;DHT22;2202;50.866;12.750;2023-04-25T10:27:03;7.10;85.20
4376;DHT22;2202;50.866;12.750;2023-04-25T10:29:30;7.10;86.40
4376;DHT22;2202;50.866;12.750;2023-04-25T10:31:57;7.10;84.20
4376;DHT22;2202;50.866;12.750;2023-04-25T10:34:39;7.10;84.00
4376;DHT22;2202;50.866;12.750;2023-04-25T10:37:09;7.20;83.20
4376;DHT22;2202;50.866;12.750;2023-04-25T10:39:38;7.20;80.40
4376;DHT22;2202;50.866;12.750;2023-04-25T10:42:06;7.10;81.00
4376;DHT22;2202;50.866;12.750;2023-04-25T10:44:33;7.00;80.20
4376;DHT22;2202;50.866;12.750;2023-04-25T10:47:01;6.90;81.00
4376;DHT22;2202;50.866;12.750;2023-04-25T10:49:33;7.00;82.00
4376;DHT22;2202;50.866;12.750;2023-04-25T10:52:14;7.00;81.60
4376;DHT22;2202;50.866;12.750;2023-04-25T10:54:42;7.00;82.20
4376;DHT22;2202;50.866;12.750;2023-04-25T10:57:30;7.00;81.80
4376;DHT22;2202;50.866;12.750;2023-04-25T11:00:11;7.00;83.40
4376;DHT22;2202;50.866;12.750;2023-04-25T11:02:45;7.20;83.60
4376;DHT22;2202;50.866;12.750;2023-04-25T11:05:26;7.30;82.80
4376;DHT22;2202;50.866;12.750;2023-04-25T11:07:55;7.30;83.20
4376;DHT22;2202;50.866;12.750;2023-04-25T11:10:25;7.20;82.60
4376;DHT22;2202;50.866;12.750;2023-04-25T11:12:52;7.00;84.20
4376;DHT22;2202;50.866;12.750;2023-04-25T11:15:19;6.90;84.20
4376;DHT22;2202;50.866;12.750;2023-04-25T11:17:46;6.90;84.80
4376;DHT22;2202;50.866;12.750;2023-04-25T11:20:13;7.00;84.20
4376;DHT22;2202;50.866;12.750;2023-04-25T11:22:44;6.90;84.80
4376;DHT22;2202;50.866;12.750;2023-04-25T11:25:13;6.90;84.00
4376;DHT22;2202;50.866;12.750;2023-04-25T11:27:49;7.00;84.00
4376;DHT22;2202;50.866;12.750;2023-04-25T11:30:17;6.80;81.40
4376;DHT22;2202;50.866;12.750;2023-04-25T11:32:45;6.70;81.60
4376;DHT22;2202;50.866;12.750;2023-04-25T11:35:12;6.70;81.60
4376;DHT22;2202;50.866;12.750;2023-04-25T11:37:40;6.70;81.60
4376;DHT22;2202;50.866;12.750;2023-04-25T11:40:09;6.60;82.20
4376;DHT22;2202;50.866;12.750;2023-04-25T11:42:37;6.70;82.20
4376;DHT22;2202;50.866;12.750;2023-04-25T11:45:05;6.70;82.80
4376;DHT22;2202;50.866;12.750;2023-04-25T11:47:34;6.80;81.20
4376;DHT22;2202;50.866;12.750;2023-04-25T11:50:01;6.70;81.00
4376;DHT22;2202;50.866;12.750;2023-04-25T11:52:38;6.60;82.00
4376;DHT22;2202;50.866;12.750;2023-04-25T11:55:09;6.60;81.40
4376;DHT22;2202;50.866;12.750;2023-04-25T11:57:38;6.70;81.40
4376;DHT22;2202;50.866;12.750;2023-04-25T12:00:12;6.60;80.60
4376;DHT22;2202;50.866;12.750;2023-04-25T12:02:43;6.50;81.40
4376;DHT22;2202;50.866;12.750;2023-04-25T12:05:12;6.40;83.20
4376;DHT22;2202;50.866;12.750;2023-04-25T12:07:39;6.30;84.20
4376;DHT22;2202;50.866;12.750;2023-04-25T12:10:10;6.40;86.20
4376;DHT22;2202;50.866;12.750;2023-04-25T12:12:38;6.40;86.40
4376;DHT22;2202;50.866;12.750;2023-04-25T12:15:12;6.40;87.00
4376;DHT22;2202;50.866;12.750;2023-04-25T12:17:41;6.40;87.00
4376;DHT22;2202;50.866;12.750;2023-04-25T12:20:09;6.40;88.00
4376;DHT22;2202;50.866;12.750;2023-04-25T12:22:36;6.40;89.00
4376;DHT22;2202;50.866;12.750;2023-04-25T12:25:04;6.10;90.50
4376;DHT22;2202;50.866;12.750;2023-04-25T12:27:32;6.00;91.80
4376;DHT22;2202;50.866;12.750;2023-04-25T12:29:59;5.90;91.50
4376;DHT22;2202;50.866;12.750;2023-04-25T12:32:27;5.90;91.60
4376;DHT22;2202;50.866;12.750;2023-04-25T12:34:54;5.90;91.00
4376;DHT22;2202;50.866;12.750;2023-04-25T12:37:21;6.00;90.40
4376;DHT22;2202;50.866;12.750;2023-04-25T12:39:48;5.90;90.30
4376;DHT22;2202;50.866;12.750;2023-04-25T12:42:15;5.90;90.20
4376;DHT22;2202;50.866;12.750;2023-04-25T12:44:43;5.90;90.60
4376;DHT22;2202;50.866;12.750;2023-04-25T12:47:10;5.90;90.50
4376;DHT22;2202;50.866;12.750;2023-04-25T12:49:37;5.80;88.80
4376;DHT22;2202;50.866;12.750;2023-04-25T12:52:04;5.90;90.40
4376;DHT22;2202;50.866;12.750;2023-04-25T12:54:30;6.20;90.70
4376;DHT22;2202;50.866;12.750;2023-04-25T12:56:57;6.30;90.20
4376;DHT22;2202;50.866;12.750;2023-04-25T12:59:24;6.50;90.10
4376;DHT22;2202;50.866;12.750;2023-04-25T13:01:52;6.30;87.40
4376;DHT22;2202;50.866;12.750;2023-04-25T13:04:19;6.30;86.40
4376;DHT22;2202;50.866;12.750;2023-04-25T13:06:46;6.30;86.80
4376;DHT22;2202;50.866;12.750;2023-04-25T13:09:13;6.40;86.80
4376;DHT22;2202;50.866;12.750;2023-04-25T13:11:41;6.60;86.20
4376;DHT22;2202;50.866;12.750;2023-04-25T13:14:07;6.70;84.60
4376;DHT22;2202;50.866;12.750;2023-04-25T13:16:34;6.90;85.40
4376;DHT22;2202;50.866;12.750;2023-04-25T13:19:03;7.00;83.40
4376;DHT22;2202;50.866;12.750;2023-04-25T13:21:31;7.10;82.80
4376;DHT22;2202;50.866;12.750;2023-04-25T13:23:58;7.30;81.20
4376;DHT22;2202;50.866;12.750;2023-04-25T13:26:25;7.30;80.40
4376;DHT22;2202;50.866;12.750;2023-04-25T13:28:52;7.30;80.00
4376;DHT22;2202;50.866;12.750;2023-04-25T13:31:19;7.60;80.20
4376;DHT22;2202;50.866;12.750;2023-04-25T13:33:46;7.60;79.00
4376;DHT22;2202;50.866;12.750;2023-04-25T13:36:14;7.50;79.80
4376;DHT22;2202;50.866;12.750;2023-04-25T13:38:41;7.60;81.00
4376;DHT22;2202;50.866;12.750;2023-04-25T13:41:10;7.70;80.80
4376;DHT22;2202;50.866;12.750;2023-04-25T13:43:41;8.20;80.60
4376;DHT22;2202;50.866;12.750;2023-04-25T13:46:08;8.10;75.60
4376;DHT22;2202;50.866;12.750;2023-04-25T13:48:35;7.80;77.60
4376;DHT22;2202;50.866;12.750;2023-04-25T13:51:02;7.70;79.00
4376;DHT22;2202;50.866;12.750;2023-04-25T13:53:30;7.60;80.20
4376;DHT22;2202;50.866;12.750;2023-04-25T13:55:57;7.60;81.40
4376;DHT22;2202;50.866;12.750;2023-04-25T13:58:24;7.70;80.80
4376;DHT22;2202;50.866;12.750;2023-04-25T14:00:51;7.50;80.80
4376;DHT22;2202;50.866;12.750;2023-04-25T14:03:19;7.60;82.20
4376;DHT22;2202;50.866;12.750;2023-04-25T14:05:46;7.70;81.20
4376;DHT22;2202;50.866;12.750;2023-04-25T14:08:12;7.80;81.00
4376;DHT22;2202;50.866;12.750;2023-04-25T14:10:41;8.00;80.00
4376;DHT22;2202;50.866;12.750;2023-04-25T14:13:08;8.00;78.40
4376;DHT22;2202;50.866;12.750;2023-04-25T14:15:35;7.90;78.40
4376;DHT22;2202;50.866;12.750;2023-04-25T14:18:02;7.70;80.20
4376;DHT22;2202;50.866;12.750;2023-04-25T14:20:29;7.60;80.40
4376;DHT22;2202;50.866;12.750;2023-04-25T14:22:56;7.50;81.00
4376;DHT22;2202;50.866;12.750;2023-04-25T14:25:24;7.50;82.80
4376;DHT22;2202;50.866;12.750;2023-04-25T14:27:52;7.30;86.00
4376;DHT22;2202;50.866;12.750;2023-04-25T14:30:20;7.00;83.60
4376;DHT22;2202;50.866;12.750;2023-04-25T14:32:48;6.80;84.60
4376;DHT22;2202;50.866;12.750;2023-04-25T14:35:15;6.80;85.80
4376;DHT22;2202;50.866;12.750;2023-04-25T14:37:42;6.70;84.80
4376;DHT22;2202;50.866;12.750;2023-04-25T14:40:10;6.50;83.40
4376;DHT22;2202;50.866;12.750;2023-04-25T14:42:38;6.20;86.60
4376;DHT22;2202;50.866;12.750;2023-04-25T14:45:08;6.10;88.80
4376;DHT22;2202;50.866;12.750;2023-04-25T14:47:36;6.00;89.00
4376;DHT22;2202;50.866;12.750;2023-04-25T14:50:03;6.00;89.40
4376;DHT22;2202;50.866;12.750;2023-04-25T14:52:30;6.10;89.60
4376;DHT22;2202;50.866;12.750;2023-04-25T14:54:57;6.20;88.20
4376;DHT22;2202;50.866;12.750;2023-04-25T14:57:25;6.20;84.60
4376;DHT22;2202;50.866;12.750;2023-04-25T14:59:52;6.20;85.40
4376;DHT22;2202;50.866;12.750;2023-04-25T15:02:20;6.20;87.00
4376;DHT22;2202;50.866;12.750;2023-04-25T15:04:47;6.30;84.80
4376;DHT22;2202;50.866;12.750;2023-04-25T15:07:14;6.40;85.00
4376;DHT22;2202;50.866;12.750;2023-04-25T15:09:41;6.50;83.80
4376;DHT22;2202;50.866;12.750;2023-04-25T15:12:07;6.70;84.60
4376;DHT22;2202;50.866;12.750;2023-04-25T15:14:35;6.90;81.40
4376;DHT22;2202;50.866;12.750;2023-04-25T15:17:01;7.10;84.20
4376;DHT22;2202;50.866;12.750;2023-04-25T15:19:30;7.30;84.20
4376;DHT22;2202;50.866;12.750;2023-04-25T15:21:56;7.40;79.60
4376;DHT22;2202;50.866;12.750;2023-04-25T15:24:26;7.60;80.80
4376;DHT22;2202;50.866;12.750;2023-04-25T15:26:52;7.90;79.40
4376;DHT22;2202;50.866;12.750;2023-04-25T15:29:19;8.20;78.20
4376;DHT22;2202;50.866;12.750;2023-04-25T15:31:47;8.30;73.20
4376;DHT22;2202;50.866;12.750;2023-04-25T15:34:13;8.30;72.00
4376;DHT22;2202;50.866;12.750;2023-04-25T15:36:42;8.50;70.20
4376;DHT22;2202;50.866;12.750;2023-04-25T15:39:08;8.60;73.00
4376;DHT22;2202;50.866;12.750;2023-04-25T15:41:35;8.70;70.00
4376;DHT22;2202;50.866;12.750;2023-04-25T15:44:02;8.60;68.40
4376;DHT22;2202;50.866;12.750;2023-04-25T15:46:29;8.50;70.80
4376;DHT22;2202;50.866;12.750;2023-04-25T15:48:56;8.40;73.40
4376;DHT22;2202;50.866;12.750;2023-04-25T15:51:23;8.20;69.40
4376;DHT22;2202;50.866;12.750;2023-04-25T15:53:52;7.90;67.60
4376;DHT22;2202;50.866;12.750;2023-04-25T15:56:19;7.80;68.80
4376;DHT22;2202;50.866;12.750;2023-04-25T15:58:46;7.80;70.80
4376;DHT22;2202;50.866;12.750;2023-04-25T16:01:13;7.80;67.80
4376;DHT22;2202;50.866;12.750;2023-04-25T16:03:40;7.80;66.80
4376;DHT22;2202;50.866;12.750;2023-04-25T16:06:07;7.80;66.40